sensor_id;sensor_type;location;lat;lon;timestamp;temperature;humidity
78902;DHT22;70441;44.758;37.686;2023-06-14T00:00:53;20.51;83.23
78902;DHT22;70441;44.758;37.686;2023-06-14T00:01:57;20.51;83.19
78902;DHT22;70441;44.758;37.686;2023-06-14T00:02:59;20.53;83.17
78902;DHT22;70441;44.758;37.686;2023-06-14T00:04:01;20.49;83.19
78902;DHT22;70441;44.758;37.686;2023-06-14T00:05:03;20.51;83.20
78902;DHT22;70441;44.758;37.686;2023-06-14T00:06:05;20.51;83.13
78902;DHT22;70441;44.758;37.686;2023-06-14T00:07:07;20.52;83.11
78902;DHT22;70441;44.758;37.686;2023-06-14T00:08:10;20.51;83.08
78902;DHT22;70441;44.758;37.686;2023-06-14T00:09:12;20.53;83.07
78902;DHT22;70441;44.758;37.686;2023-06-14T00:10:14;20.51;82.97
78902;DHT22;70441;44.758;37.686;2023-06-14T00:11:16;20.52;82.99
78902;DHT22;70441;44.758;37.686;2023-06-14T00:12:17;20.52;82.93
78902;DHT22;70441;44.758;37.686;2023-06-14T00:13:19;20.49;82.96
78902;DHT22;70441;44.758;37.686;2023-06-14T00:14:21;20.51;82.98
78902;DHT22;70441;44.758;37.686;2023-06-14T00:15:23;20.46;83.04
78902;DHT22;70441;44.758;37.686;2023-06-14T00:16:24;20.48;83.03
78902;DHT22;70441;44.758;37.686;2023-06-14T00:17:26;20.48;83.08
78902;DHT22;70441;44.758;37.686;2023-06-14T00:18:31;20.48;83.10
78902;DHT22;70441;44.758;37.686;2023-06-14T00:19:32;20.45;83.08
78902;DHT22;70441;44.758;37.686;2023-06-14T00:20:36;20.46;83.13
78902;DHT22;70441;44.758;37.686;2023-06-14T00:21:38;20.48;83.00
78902;DHT22;70441;44.758;37.686;2023-06-14T00:22:40;20.44;83.07
78902;DHT22;70441;44.758;37.686;2023-06-14T00:23:41;20.44;83.24
78902;DHT22;70441;44.758;37.686;2023-06-14T00:24:43;20.39;83.29
78902;DHT22;70441;44.758;37.686;2023-06-14T00:25:44;20.39;83.38
78902;DHT22;70441;44.758;37.686;2023-06-14T00:26:46;20.42;83.32
78902;DHT22;70441;44.758;37.686;2023-06-14T00:27:48;20.42;83.30
78902;DHT22;70441;44.758;37.686;2023-06-14T00:28:50;20.42;83.29
78902;DHT22;70441;44.758;37.686;2023-06-14T00:29:51;20.39;83.15
78902;DHT22;70441;44.758;37.686;2023-06-14T00:30:53;20.39;83.22
78902;DHT22;70441;44.758;37.686;2023-06-14T00:31:54;20.37;83.27
78902;DHT22;70441;44.758;37.686;2023-06-14T00:32:56;20.38;83.30
78902;DHT22;70441;44.758;37.686;2023-06-14T00:34:00;20.35;83.33
78902;DHT22;70441;44.758;37.686;2023-06-14T00:35:01;20.38;83.29
78902;DHT22;70441;44.758;37.686;2023-06-14T00:36:04;20.37;83.22
78902;DHT22;70441;44.758;37.686;2023-06-14T00:37:06;20.37;83.22
78902;DHT22;70441;44.758;37.686;2023-06-14T00:38:08;20.32;83.17
78902;DHT22;70441;44.758;37.686;2023-06-14T00:39:09;20.34;83.18
78902;DHT22;70441;44.758;37.686;2023-06-14T00:40:11;20.31;83.38
78902;DHT22;70441;44.758;37.686;2023-06-14T00:41:12;20.34;83.11
78902;DHT22;70441;44.758;37.686;2023-06-14T00:42:24;20.32;83.26
78902;DHT22;70441;44.758;37.686;2023-06-14T00:43:26;20.29;83.39
78902;DHT22;70441;44.758;37.686;2023-06-14T00:44:28;20.29;83.36
78902;DHT22;70441;44.758;37.686;2023-06-14T00:45:30;20.29;83.26
78902;DHT22;70441;44.758;37.686;2023-06-14T00:46:33;20.29;83.32
78902;DHT22;70441;44.758;37.686;2023-06-14T00:47:36;20.25;83.43
78902;DHT22;70441;44.758;37.686;2023-06-14T00:48:39;20.28;83.31
78902;DHT22;70441;44.758;37.686;2023-06-14T00:49:41;20.21;83.43
78902;DHT22;70441;44.758;37.686;2023-06-14T00:50:44;20.21;83.45
78902;DHT22;70441;44.758;37.686;2023-06-14T00:51:50;20.22;83.60
78902;DHT22;70441;44.758;37.686;2023-06-14T00:52:53;20.22;83.63
78902;DHT22;70441;44.758;37.686;2023-06-14T00:53:55;20.21;83.69
78902;DHT22;70441;44.758;37.686;2023-06-14T00:54:57;20.24;83.71
78902;DHT22;70441;44.758;37.686;2023-06-14T00:55:58;20.25;83.66
78902;DHT22;70441;44.758;37.686;2023-06-14T00:57:00;20.25;83.43
78902;DHT22;70441;44.758;37.686;2023-06-14T00:58:02;20.27;83.18
78902;DHT22;70441;44.758;37.686;2023-06-14T00:59:04;20.27;83.08
78902;DHT22;70441;44.758;37.686;2023-06-14T01:00:06;20.29;83.04
78902;DHT22;70441;44.758;37.686;2023-06-14T01:01:11;20.25;83.25
78902;DHT22;70441;44.758;37.686;2023-06-14T01:02:13;20.22;83.26
78902;DHT22;70441;44.758;37.686;2023-06-14T01:03:19;20.21;83.57
78902;DHT22;70441;44.758;37.686;2023-06-14T01:04:24;20.18;83.84
78902;DHT22;70441;44.758;37.686;2023-06-14T01:05:26;20.21;83.79
78902;DHT22;70441;44.758;37.686;2023-06-14T01:06:46;20.18;83.80
78902;DHT22;70441;44.758;37.686;2023-06-14T01:09:17;20.20;83.87
78902;DHT22;70441;44.758;37.686;2023-06-14T01:11:52;20.22;83.34
78902;DHT22;70441;44.758;37.686;2023-06-14T01:14:11;20.32;82.93
78902;DHT22;70441;44.758;37.686;2023-06-14T01:15:14;20.35;83.00
78902;DHT22;70441;44.758;37.686;2023-06-14T01:16:17;20.38;83.00
78902;DHT22;70441;44.758;37.686;2023-06-14T01:17:19;20.38;83.33
78902;DHT22;70441;44.758;37.686;2023-06-14T01:18:23;20.35;83.33
78902;DHT22;70441;44.758;37.686;2023-06-14T01:19:25;20.35;83.40
78902;DHT22;70441;44.758;37.686;2023-06-14T01:20:28;20.31;83.65
78902;DHT22;70441;44.758;37.686;2023-06-14T01:21:31;20.27;83.71
78902;DHT22;70441;44.758;37.686;2023-06-14T01:22:35;20.28;83.59
78902;DHT22;70441;44.758;37.686;2023-06-14T01:23:37;20.31;83.14
78902;DHT22;70441;44.758;37.686;2023-06-14T01:24:38;20.38;83.02
78902;DHT22;70441;44.758;37.686;2023-06-14T01:25:40;20.45;82.85
78902;DHT22;70441;44.758;37.686;2023-06-14T01:26:46;20.49;82.58
78902;DHT22;70441;44.758;37.686;2023-06-14T01:27:56;20.52;82.53
78902;DHT22;70441;44.758;37.686;2023-06-14T01:29:01;20.56;82.60
78902;DHT22;70441;44.758;37.686;2023-06-14T01:30:03;20.62;82.47
78902;DHT22;70441;44.758;37.686;2023-06-14T01:31:07;20.65;82.18
78902;DHT22;70441;44.758;37.686;2023-06-14T01:32:09;20.69;82.16
78902;DHT22;70441;44.758;37.686;2023-06-14T01:33:21;20.73;81.80
78902;DHT22;70441;44.758;37.686;2023-06-14T01:34:24;20.76;81.34
78902;DHT22;70441;44.758;37.686;2023-06-14T01:35:26;20.81;81.42
78902;DHT22;70441;44.758;37.686;2023-06-14T01:36:29;20.83;81.41
78902;DHT22;70441;44.758;37.686;2023-06-14T01:37:32;20.84;81.64
78902;DHT22;70441;44.758;37.686;2023-06-14T01:38:37;20.83;81.79
78902;DHT22;70441;44.758;37.686;2023-06-14T01:39:39;20.83;82.04
78902;DHT22;70441;44.758;37.686;2023-06-14T01:40:40;20.77;82.31
78902;DHT22;70441;44.758;37.686;2023-06-14T01:41:44;20.75;82.54
78902;DHT22;70441;44.758;37.686;2023-06-14T01:42:47;20.73;82.64
78902;DHT22;70441;44.758;37.686;2023-06-14T01:43:51;20.68;82.69
78902;DHT22;70441;44.758;37.686;2023-06-14T01:44:54;20.69;82.49
78902;DHT22;70441;44.758;37.686;2023-06-14T01:45:57;20.70;82.40
78902;DHT22;70441;44.758;37.686;2023-06-14T01:46:59;20.72;82.28
78902;DHT22;70441;44.758;37.686;2023-06-14T01:48:01;20.75;82.29
78902;DHT22;70441;44.758;37.686;2023-06-14T01:49:03;20.75;82.34
78902;DHT22;70441;44.758;37.686;2023-06-14T01:50:05;20.73;82.26
78902;DHT22;70441;44.758;37.686;2023-06-14T01:51:06;20.75;82.33
78902;DHT22;70441;44.758;37.686;2023-06-14T01:52:08;20.73;82.28
78902;DHT22;70441;44.758;37.686;2023-06-14T01:53:11;20.75;82.19
78902;DHT22;70441;44.758;37.686;2023-06-14T01:54:12;20.73;82.21
78902;DHT22;70441;44.758;37.686;2023-06-14T01:55:14;20.75;82.24
78902;DHT22;70441;44.758;37.686;2023-06-14T01:56:16;20.73;82.28
78902;DHT22;70441;44.758;37.686;2023-06-14T01:57:18;20.72;82.35
78902;DHT22;70441;44.758;37.686;2023-06-14T01:58:19;20.76;82.36
78902;DHT22;70441;44.758;37.686;2023-06-14T01:59:22;20.76;82.22
78902;DHT22;70441;44.758;37.686;2023-06-14T02:00:23;20.80;82.10
78902;DHT22;70441;44.758;37.686;2023-06-14T02:01:27;20.81;82.04
78902;DHT22;70441;44.758;37.686;2023-06-14T02:02:29;20.86;81.92
78902;DHT22;70441;44.758;37.686;2023-06-14T02:03:30;20.86;81.88
78902;DHT22;70441;44.758;37.686;2023-06-14T02:04:32;20.90;81.76
78902;DHT22;70441;44.758;37.686;2023-06-14T02:05:34;20.93;81.59
78902;DHT22;70441;44.758;37.686;2023-06-14T02:06:35;20.97;81.51
78902;DHT22;70441;44.758;37.686;2023-06-14T02:07:37;20.97;81.38
78902;DHT22;70441;44.758;37.686;2023-06-14T02:08:39;20.98;81.37
78902;DHT22;70441;44.758;37.686;2023-06-14T02:09:41;21.01;81.27
78902;DHT22;70441;44.758;37.686;2023-06-14T02:10:43;21.01;81.34
78902;DHT22;70441;44.758;37.686;2023-06-14T02:11:45;21.03;80.77
78902;DHT22;70441;44.758;37.686;2023-06-14T02:12:46;21.08;80.98
78902;DHT22;70441;44.758;37.686;2023-06-14T02:13:48;21.07;81.21
78902;DHT22;70441;44.758;37.686;2023-06-14T02:14:50;21.05;81.21
78902;DHT22;70441;44.758;37.686;2023-06-14T02:15:52;21.04;80.90
78902;DHT22;70441;44.758;37.686;2023-06-14T02:16:56;21.04;80.75
78902;DHT22;70441;44.758;37.686;2023-06-14T02:18:02;21.05;80.64
78902;DHT22;70441;44.758;37.686;2023-06-14T02:19:05;21.08;80.50
78902;DHT22;70441;44.758;37.686;2023-06-14T02:20:07;21.10;80.40
78902;DHT22;70441;44.758;37.686;2023-06-14T02:21:09;21.10;80.53
78902;DHT22;70441;44.758;37.686;2023-06-14T02:22:11;21.10;80.50
78902;DHT22;70441;44.758;37.686;2023-06-14T02:23:13;21.10;80.43
78902;DHT22;70441;44.758;37.686;2023-06-14T02:24:14;21.10;80.28
78902;DHT22;70441;44.758;37.686;2023-06-14T02:25:16;21.08;80.22
78902;DHT22;70441;44.758;37.686;2023-06-14T02:26:18;21.10;80.44
78902;DHT22;70441;44.758;37.686;2023-06-14T02:27:19;21.11;80.02
78902;DHT22;70441;44.758;37.686;2023-06-14T02:28:21;21.10;80.27
78902;DHT22;70441;44.758;37.686;2023-06-14T02:29:22;21.07;80.17
78902;DHT22;70441;44.758;37.686;2023-06-14T02:30:24;21.08;80.04
78902;DHT22;70441;44.758;37.686;2023-06-14T02:31:26;21.05;80.36
78902;DHT22;70441;44.758;37.686;2023-06-14T02:32:28;21.03;80.44
78902;DHT22;70441;44.758;37.686;2023-06-14T02:33:30;20.97;80.54
78902;DHT22;70441;44.758;37.686;2023-06-14T02:34:31;20.98;80.45
78902;DHT22;70441;44.758;37.686;2023-06-14T02:35:34;20.94;80.50
78902;DHT22;70441;44.758;37.686;2023-06-14T02:36:38;20.90;80.29
78902;DHT22;70441;44.758;37.686;2023-06-14T02:37:42;20.88;80.56
78902;DHT22;70441;44.758;37.686;2023-06-14T02:38:44;20.83;80.49
78902;DHT22;70441;44.758;37.686;2023-06-14T02:39:46;20.80;80.67
78902;DHT22;70441;44.758;37.686;2023-06-14T02:40:48;20.80;80.90
78902;DHT22;70441;44.758;37.686;2023-06-14T02:41:50;20.77;81.15
78902;DHT22;70441;44.758;37.686;2023-06-14T02:42:51;20.76;81.37
78902;DHT22;70441;44.758;37.686;2023-06-14T02:43:53;20.73;81.65
78902;DHT22;70441;44.758;37.686;2023-06-14T02:44:55;20.73;81.79
78902;DHT22;70441;44.758;37.686;2023-06-14T02:45:56;20.70;81.79
78902;DHT22;70441;44.758;37.686;2023-06-14T02:46:58;20.69;82.02
78902;DHT22;70441;44.758;37.686;2023-06-14T02:48:02;20.66;82.06
78902;DHT22;70441;44.758;37.686;2023-06-14T02:49:03;20.65;82.08
78902;DHT22;70441;44.758;37.686;2023-06-14T02:50:07;20.65;81.91
78902;DHT22;70441;44.758;37.686;2023-06-14T02:51:09;20.66;82.01
78902;DHT22;70441;44.758;37.686;2023-06-14T02:52:10;20.66;82.04
78902;DHT22;70441;44.758;37.686;2023-06-14T02:53:12;20.68;82.09
78902;DHT22;70441;44.758;37.686;2023-06-14T02:54:14;20.70;82.20
78902;DHT22;70441;44.758;37.686;2023-06-14T02:55:16;20.70;82.32
78902;DHT22;70441;44.758;37.686;2023-06-14T02:56:17;20.73;82.51
78902;DHT22;70441;44.758;37.686;2023-06-14T02:57:22;20.76;82.60
78902;DHT22;70441;44.758;37.686;2023-06-14T02:58:24;20.83;82.64
78902;DHT22;70441;44.758;37.686;2023-06-14T02:59:26;20.88;82.86
78902;DHT22;70441;44.758;37.686;2023-06-14T03:00:30;20.90;82.73
78902;DHT22;70441;44.758;37.686;2023-06-14T03:01:32;20.97;82.64
78902;DHT22;70441;44.758;37.686;2023-06-14T03:02:41;21.04;82.38
78902;DHT22;70441;44.758;37.686;2023-06-14T03:03:44;21.07;82.32
78902;DHT22;70441;44.758;37.686;2023-06-14T03:04:45;21.14;82.06
78902;DHT22;70441;44.758;37.686;2023-06-14T03:05:50;21.18;82.06
78902;DHT22;70441;44.758;37.686;2023-06-14T03:06:57;21.25;82.02
78902;DHT22;70441;44.758;37.686;2023-06-14T03:07:59;21.31;81.83
78902;DHT22;70441;44.758;37.686;2023-06-14T03:09:03;21.36;81.76
78902;DHT22;70441;44.758;37.686;2023-06-14T03:10:11;21.41;81.85
78902;DHT22;70441;44.758;37.686;2023-06-14T03:11:16;21.47;82.12
78902;DHT22;70441;44.758;37.686;2023-06-14T03:12:22;21.56;81.98
78902;DHT22;70441;44.758;37.686;2023-06-14T03:13:25;21.59;81.86
78902;DHT22;70441;44.758;37.686;2023-06-14T03:14:28;21.63;81.71
78902;DHT22;70441;44.758;37.686;2023-06-14T03:15:32;21.67;81.63
78902;DHT22;70441;44.758;37.686;2023-06-14T03:16:35;21.70;81.36
78902;DHT22;70441;44.758;37.686;2023-06-14T03:17:38;21.73;81.29
78902;DHT22;70441;44.758;37.686;2023-06-14T03:18:41;21.76;81.39
78902;DHT22;70441;44.758;37.686;2023-06-14T03:19:43;21.77;81.39
78902;DHT22;70441;44.758;37.686;2023-06-14T03:20:44;21.79;81.52
78902;DHT22;70441;44.758;37.686;2023-06-14T03:21:52;21.81;81.56
78902;DHT22;70441;44.758;37.686;2023-06-14T03:22:54;21.83;81.62
78902;DHT22;70441;44.758;37.686;2023-06-14T03:23:56;21.88;81.51
78902;DHT22;70441;44.758;37.686;2023-06-14T03:24:58;21.90;81.30
78902;DHT22;70441;44.758;37.686;2023-06-14T03:26:00;21.94;81.34
78902;DHT22;70441;44.758;37.686;2023-06-14T03:27:03;21.95;81.22
78902;DHT22;70441;44.758;37.686;2023-06-14T03:28:05;21.97;81.08
78902;DHT22;70441;44.758;37.686;2023-06-14T03:29:07;22.01;81.10
78902;DHT22;70441;44.758;37.686;2023-06-14T03:30:09;22.04;81.16
78902;DHT22;70441;44.758;37.686;2023-06-14T03:31:11;22.09;81.10
78902;DHT22;70441;44.758;37.686;2023-06-14T03:32:13;22.12;81.28
78902;DHT22;70441;44.758;37.686;2023-06-14T03:33:17;22.22;80.77
78902;DHT22;70441;44.758;37.686;2023-06-14T03:34:19;22.28;80.67
78902;DHT22;70441;44.758;37.686;2023-06-14T03:35:22;22.33;79.86
78902;DHT22;70441;44.758;37.686;2023-06-14T03:36:23;22.39;79.91
78902;DHT22;70441;44.758;37.686;2023-06-14T03:37:26;22.45;79.58
78902;DHT22;70441;44.758;37.686;2023-06-14T03:38:27;22.52;79.44
78902;DHT22;70441;44.758;37.686;2023-06-14T03:39:29;22.57;79.24
78902;DHT22;70441;44.758;37.686;2023-06-14T03:40:31;22.63;79.01
78902;DHT22;70441;44.758;37.686;2023-06-14T03:41:37;22.67;78.82
78902;DHT22;70441;44.758;37.686;2023-06-14T03:42:39;22.74;78.63
78902;DHT22;70441;44.758;37.686;2023-06-14T03:43:41;22.78;78.35
78902;DHT22;70441;44.758;37.686;2023-06-14T03:44:42;22.80;78.47
78902;DHT22;70441;44.758;37.686;2023-06-14T03:45:44;22.81;78.18
78902;DHT22;70441;44.758;37.686;2023-06-14T03:46:46;22.84;78.36
78902;DHT22;70441;44.758;37.686;2023-06-14T03:47:48;22.91;78.25
78902;DHT22;70441;44.758;37.686;2023-06-14T03:48:49;22.88;77.96
78902;DHT22;70441;44.758;37.686;2023-06-14T03:49:52;22.91;77.66
78902;DHT22;70441;44.758;37.686;2023-06-14T03:50:54;22.94;78.02
78902;DHT22;70441;44.758;37.686;2023-06-14T03:51:56;22.98;77.42
78902;DHT22;70441;44.758;37.686;2023-06-14T03:53:00;23.01;77.30
78902;DHT22;70441;44.758;37.686;2023-06-14T03:54:02;23.04;76.78
78902;DHT22;70441;44.758;37.686;2023-06-14T03:55:05;23.06;76.84
78902;DHT22;70441;44.758;37.686;2023-06-14T03:56:08;23.09;76.98
78902;DHT22;70441;44.758;37.686;2023-06-14T03:57:15;23.13;77.32
78902;DHT22;70441;44.758;37.686;2023-06-14T03:58:18;23.15;77.31
78902;DHT22;70441;44.758;37.686;2023-06-14T03:59:20;23.15;76.70
78902;DHT22;70441;44.758;37.686;2023-06-14T04:00:22;23.16;76.44
78902;DHT22;70441;44.758;37.686;2023-06-14T04:01:24;23.19;76.49
78902;DHT22;70441;44.758;37.686;2023-06-14T04:02:28;23.23;76.31
78902;DHT22;70441;44.758;37.686;2023-06-14T04:03:30;23.24;76.09
78902;DHT22;70441;44.758;37.686;2023-06-14T04:04:31;23.23;76.39
78902;DHT22;70441;44.758;37.686;2023-06-14T04:05:34;23.23;76.42
78902;DHT22;70441;44.758;37.686;2023-06-14T04:06:35;23.26;76.11
78902;DHT22;70441;44.758;37.686;2023-06-14T04:07:39;23.12;76.31
78902;DHT22;70441;44.758;37.686;2023-06-14T04:08:43;23.02;76.89
78902;DHT22;70441;44.758;37.686;2023-06-14T04:09:46;23.02;76.87
78902;DHT22;70441;44.758;37.686;2023-06-14T04:10:48;23.09;76.88
78902;DHT22;70441;44.758;37.686;2023-06-14T04:11:52;23.18;76.23
78902;DHT22;70441;44.758;37.686;2023-06-14T04:12:54;23.24;75.94
78902;DHT22;70441;44.758;37.686;2023-06-14T04:13:55;23.34;75.93
78902;DHT22;70441;44.758;37.686;2023-06-14T04:14:58;23.32;76.00
78902;DHT22;70441;44.758;37.686;2023-06-14T04:16:00;23.30;76.30
78902;DHT22;70441;44.758;37.686;2023-06-14T04:17:07;23.34;76.21
78902;DHT22;70441;44.758;37.686;2023-06-14T04:18:08;23.42;76.00
78902;DHT22;70441;44.758;37.686;2023-06-14T04:19:10;23.46;75.84
78902;DHT22;70441;44.758;37.686;2023-06-14T04:20:12;23.45;75.84
78902;DHT22;70441;44.758;37.686;2023-06-14T04:21:13;23.47;75.75
78902;DHT22;70441;44.758;37.686;2023-06-14T04:22:15;23.46;75.82
78902;DHT22;70441;44.758;37.686;2023-06-14T04:23:17;23.47;75.90
78902;DHT22;70441;44.758;37.686;2023-06-14T04:24:20;23.54;75.78
78902;DHT22;70441;44.758;37.686;2023-06-14T04:25:24;23.54;75.08
78902;DHT22;70441;44.758;37.686;2023-06-14T04:26:28;23.61;75.14
78902;DHT22;70441;44.758;37.686;2023-06-14T04:27:32;23.67;75.31
78902;DHT22;70441;44.758;37.686;2023-06-14T04:28:36;23.70;75.22
78902;DHT22;70441;44.758;37.686;2023-06-14T04:29:43;23.75;75.56
78902;DHT22;70441;44.758;37.686;2023-06-14T04:30:47;23.78;75.47
78902;DHT22;70441;44.758;37.686;2023-06-14T04:31:50;23.85;75.27
78902;DHT22;70441;44.758;37.686;2023-06-14T04:32:53;23.85;74.86
78902;DHT22;70441;44.758;37.686;2023-06-14T04:33:58;23.86;75.32
78902;DHT22;70441;44.758;37.686;2023-06-14T04:35:00;23.86;75.14
78902;DHT22;70441;44.758;37.686;2023-06-14T04:36:06;23.86;75.11
78902;DHT22;70441;44.758;37.686;2023-06-14T04:37:08;23.86;75.25
78902;DHT22;70441;44.758;37.686;2023-06-14T04:38:13;23.84;75.85
78902;DHT22;70441;44.758;37.686;2023-06-14T04:39:16;23.84;75.51
78902;DHT22;70441;44.758;37.686;2023-06-14T04:40:23;23.81;75.30
78902;DHT22;70441;44.758;37.686;2023-06-14T04:41:24;23.79;75.55
78902;DHT22;70441;44.758;37.686;2023-06-14T04:42:32;23.79;75.41
78902;DHT22;70441;44.758;37.686;2023-06-14T04:43:35;23.78;75.45
78902;DHT22;70441;44.758;37.686;2023-06-14T04:44:41;23.74;75.58
78902;DHT22;70441;44.758;37.686;2023-06-14T04:45:43;23.72;75.91
78902;DHT22;70441;44.758;37.686;2023-06-14T04:46:48;23.81;75.63
78902;DHT22;70441;44.758;37.686;2023-06-14T04:47:54;23.84;75.45
78902;DHT22;70441;44.758;37.686;2023-06-14T04:48:58;23.95;75.82
78902;DHT22;70441;44.758;37.686;2023-06-14T04:50:04;24.08;75.31
78902;DHT22;70441;44.758;37.686;2023-06-14T04:51:09;24.24;74.63
78902;DHT22;70441;44.758;37.686;2023-06-14T04:52:11;24.30;74.13
78902;DHT22;70441;44.758;37.686;2023-06-14T04:53:16;24.46;73.47
78902;DHT22;70441;44.758;37.686;2023-06-14T04:54:18;24.64;73.59
78902;DHT22;70441;44.758;37.686;2023-06-14T04:55:21;24.75;73.22
78902;DHT22;70441;44.758;37.686;2023-06-14T04:56:24;24.92;72.91
78902;DHT22;70441;44.758;37.686;2023-06-14T04:57:26;25.14;71.88
78902;DHT22;70441;44.758;37.686;2023-06-14T04:58:31;25.38;72.16
78902;DHT22;70441;44.758;37.686;2023-06-14T04:59:33;25.52;70.64
78902;DHT22;70441;44.758;37.686;2023-06-14T05:00:36;25.65;70.31
78902;DHT22;70441;44.758;37.686;2023-06-14T05:01:38;25.72;68.66
78902;DHT22;70441;44.758;37.686;2023-06-14T05:02:40;25.73;68.69
78902;DHT22;70441;44.758;37.686;2023-06-14T05:03:42;25.83;67.91
78902;DHT22;70441;44.758;37.686;2023-06-14T05:04:46;25.97;68.22
78902;DHT22;70441;44.758;37.686;2023-06-14T05:05:49;25.97;68.88
78902;DHT22;70441;44.758;37.686;2023-06-14T05:06:52;26.10;66.98
78902;DHT22;70441;44.758;37.686;2023-06-14T05:07:56;26.14;66.21
78902;DHT22;70441;44.758;37.686;2023-06-14T05:08:58;26.25;66.39
78902;DHT22;70441;44.758;37.686;2023-06-14T05:09:59;26.27;66.73
78902;DHT22;70441;44.758;37.686;2023-06-14T05:11:01;26.31;66.15
78902;DHT22;70441;44.758;37.686;2023-06-14T05:12:03;26.34;65.49
78902;DHT22;70441;44.758;37.686;2023-06-14T05:13:05;26.35;65.58
78902;DHT22;70441;44.758;37.686;2023-06-14T05:14:07;26.47;65.46
78902;DHT22;70441;44.758;37.686;2023-06-14T05:15:09;26.48;65.59
78902;DHT22;70441;44.758;37.686;2023-06-14T05:16:12;26.53;65.52
78902;DHT22;70441;44.758;37.686;2023-06-14T05:17:13;26.58;64.82
78902;DHT22;70441;44.758;37.686;2023-06-14T05:18:15;26.53;64.65
78902;DHT22;70441;44.758;37.686;2023-06-14T05:19:17;26.44;64.94
78902;DHT22;70441;44.758;37.686;2023-06-14T05:20:19;26.40;65.38
78902;DHT22;70441;44.758;37.686;2023-06-14T05:21:21;26.34;65.53
78902;DHT22;70441;44.758;37.686;2023-06-14T05:22:22;26.24;65.58
78902;DHT22;70441;44.758;37.686;2023-06-14T05:23:24;26.16;65.82
78902;DHT22;70441;44.758;37.686;2023-06-14T05:24:25;26.08;65.81
78902;DHT22;70441;44.758;37.686;2023-06-14T05:25:27;26.00;66.35
78902;DHT22;70441;44.758;37.686;2023-06-14T05:26:29;25.88;67.03
78902;DHT22;70441;44.758;37.686;2023-06-14T05:27:31;25.81;67.36
78902;DHT22;70441;44.758;37.686;2023-06-14T05:28:32;25.73;67.40
78902;DHT22;70441;44.758;37.686;2023-06-14T05:29:34;25.69;67.37
78902;DHT22;70441;44.758;37.686;2023-06-14T05:30:36;25.62;67.71
78902;DHT22;70441;44.758;37.686;2023-06-14T05:31:37;25.51;68.14
78902;DHT22;70441;44.758;37.686;2023-06-14T05:32:39;25.41;68.55
78902;DHT22;70441;44.758;37.686;2023-06-14T05:33:40;25.34;68.68
78902;DHT22;70441;44.758;37.686;2023-06-14T05:34:43;25.20;69.01
78902;DHT22;70441;44.758;37.686;2023-06-14T05:35:45;25.07;69.13
78902;DHT22;70441;44.758;37.686;2023-06-14T05:36:46;25.03;69.27
78902;DHT22;70441;44.758;37.686;2023-06-14T05:37:48;25.06;68.68
78902;DHT22;70441;44.758;37.686;2023-06-14T05:38:49;25.10;68.90
78902;DHT22;70441;44.758;37.686;2023-06-14T05:40:00;25.27;69.00
78902;DHT22;70441;44.758;37.686;2023-06-14T05:41:02;25.40;68.32
78902;DHT22;70441;44.758;37.686;2023-06-14T05:42:03;25.57;69.11
78902;DHT22;70441;44.758;37.686;2023-06-14T05:43:05;25.72;68.76
78902;DHT22;70441;44.758;37.686;2023-06-14T05:44:08;25.73;68.30
78902;DHT22;70441;44.758;37.686;2023-06-14T05:45:10;25.72;66.22
78902;DHT22;70441;44.758;37.686;2023-06-14T05:46:11;25.73;67.11
78902;DHT22;70441;44.758;37.686;2023-06-14T05:47:13;25.68;67.10
78902;DHT22;70441;44.758;37.686;2023-06-14T05:48:14;25.62;67.44
78902;DHT22;70441;44.758;37.686;2023-06-14T05:49:16;25.59;66.89
78902;DHT22;70441;44.758;37.686;2023-06-14T05:50:17;25.58;67.49
78902;DHT22;70441;44.758;37.686;2023-06-14T05:51:19;25.48;67.64
78902;DHT22;70441;44.758;37.686;2023-06-14T05:52:21;25.40;67.91
78902;DHT22;70441;44.758;37.686;2023-06-14T05:53:22;25.30;68.32
78902;DHT22;70441;44.758;37.686;2023-06-14T05:54:24;25.24;68.13
78902;DHT22;70441;44.758;37.686;2023-06-14T05:55:25;25.17;68.57
78902;DHT22;70441;44.758;37.686;2023-06-14T05:56:27;25.06;68.41
78902;DHT22;70441;44.758;37.686;2023-06-14T05:57:29;24.95;68.34
78902;DHT22;70441;44.758;37.686;2023-06-14T05:58:30;24.86;68.62
78902;DHT22;70441;44.758;37.686;2023-06-14T05:59:32;24.78;69.41
78902;DHT22;70441;44.758;37.686;2023-06-14T06:00:33;24.78;69.81
78902;DHT22;70441;44.758;37.686;2023-06-14T06:01:35;24.78;70.22
78902;DHT22;70441;44.758;37.686;2023-06-14T06:02:37;24.82;69.69
78902;DHT22;70441;44.758;37.686;2023-06-14T06:03:39;25.03;69.22
78902;DHT22;70441;44.758;37.686;2023-06-14T06:04:41;25.17;69.65
78902;DHT22;70441;44.758;37.686;2023-06-14T06:05:42;25.38;70.05
78902;DHT22;70441;44.758;37.686;2023-06-14T06:06:44;25.66;69.62
78902;DHT22;70441;44.758;37.686;2023-06-14T06:07:46;25.81;67.61
78902;DHT22;70441;44.758;37.686;2023-06-14T06:08:48;25.92;66.52
78902;DHT22;70441;44.758;37.686;2023-06-14T06:09:49;25.99;67.17
78902;DHT22;70441;44.758;37.686;2023-06-14T06:10:51;26.17;67.79
78902;DHT22;70441;44.758;37.686;2023-06-14T06:11:52;26.37;66.25
78902;DHT22;70441;44.758;37.686;2023-06-14T06:12:54;26.49;66.33
78902;DHT22;70441;44.758;37.686;2023-06-14T06:13:55;26.62;65.86
78902;DHT22;70441;44.758;37.686;2023-06-14T06:14:57;26.72;65.11
78902;DHT22;70441;44.758;37.686;2023-06-14T06:15:58;26.79;64.77
78902;DHT22;70441;44.758;37.686;2023-06-14T06:17:00;26.93;64.13
78902;DHT22;70441;44.758;37.686;2023-06-14T06:18:01;27.00;63.79
78902;DHT22;70441;44.758;37.686;2023-06-14T06:19:03;27.03;62.69
78902;DHT22;70441;44.758;37.686;2023-06-14T06:20:08;27.06;62.37
78902;DHT22;70441;44.758;37.686;2023-06-14T06:21:10;27.10;63.33
78902;DHT22;70441;44.758;37.686;2023-06-14T06:22:12;27.01;61.86
78902;DHT22;70441;44.758;37.686;2023-06-14T06:23:14;26.93;62.57
78902;DHT22;70441;44.758;37.686;2023-06-14T06:24:15;27.10;63.00
78902;DHT22;70441;44.758;37.686;2023-06-14T06:25:17;27.27;63.12
78902;DHT22;70441;44.758;37.686;2023-06-14T06:26:21;27.38;62.42
78902;DHT22;70441;44.758;37.686;2023-06-14T06:27:23;27.48;62.00
78902;DHT22;70441;44.758;37.686;2023-06-14T06:28:24;27.53;62.35
78902;DHT22;70441;44.758;37.686;2023-06-14T06:29:26;27.62;60.99
78902;DHT22;70441;44.758;37.686;2023-06-14T06:30:27;27.71;61.68
78902;DHT22;70441;44.758;37.686;2023-06-14T06:31:29;27.77;59.54
78902;DHT22;70441;44.758;37.686;2023-06-14T06:32:31;27.73;60.72
78902;DHT22;70441;44.758;37.686;2023-06-14T10:47:33;27.25;53.65